Time;durP1;ratioP1;P1;durP2;ratioP2;P2;SDS_P1;SDS_P2;PMS_P1;PMS_P2;Temp;Humidity;BMP_temperature;BMP_pressure;BME280_temperature;BME280_humidity;BME280_pressure;Samples;Min_cycle;Max_cycle;Signal;HPM_P1;HPM_P2
2022/05/14 00:02:23;;;;;;;9.03;4.22;;;;;;;12.04;100.00;99105.88;1731898;81;21016;-56
2022/05/14 00:04:50;;;;;;;6.70;4.05;;;;;;;11.95;100.00;99103.00;1731107;82;21040;-57
2022/05/14 00:07:16;;;;;;;;;;;;;;;11.86;100.00;99096.60;1741095;81;21030;-56
2022/05/14 00:09:42;;;;;;;10.75;3.98;;;;;;;11.83;100.00;99102.66;1744279;82;20438;-55
2022/05/14 00:14:55;;;;;;;10.05;3.75;;;;;;;11.77;100.00;99094.27;1728290;81;21003;-56
2022/05/14 00:17:21;;;;;;;8.20;3.80;;;;;;;11.68;100.00;99095.47;1739168;81;21586;-56
2022/05/14 00:19:50;;;;;;;5.45;3.75;;;;;;;11.60;100.00;99085.76;1741811;82;21596;-56
2022/05/14 00:22:16;;;;;;;8.95;3.12;;;;;;;11.55;100.00;99088.57;1745046;82;21128;-57
2022/05/14 00:24:43;;;;;;;8.20;3.55;;;;;;;11.60;100.00;99091.21;1731607;82;21019;-57
2022/05/14 00:27:09;;;;;;;;;;;;;;;11.60;100.00;99089.84;1741906;81;21046;-56
2022/05/14 00:29:35;;;;;;;7.80;2.92;;;;;;;11.56;100.00;99085.53;1746821;82;20106;-56
2022/05/14 00:32:03;;;;;;;7.65;3.30;;;;;;;11.44;100.00;99069.61;1715004;83;21617;-56
2022/05/14 00:34:29;;;;;;;6.00;3.47;;;;;;;11.42;100.00;99079.19;1740028;81;20970;-57
2022/05/14 00:36:56;;;;;;;8.05;2.95;;;;;;;11.45;100.00;99071.23;1742315;81;21058;-56
2022/05/14 00:39:23;;;;;;;8.65;3.00;;;;;;;11.51;100.00;99074.72;1746313;82;21000;-56
2022/05/14 00:41:50;;;;;;;9.95;3.25;;;;;;;11.48;100.00;99076.09;1742765;81;21114;-56
2022/05/14 00:44:17;;;;;;;6.58;3.12;;;;;;;11.39;100.00;99073.78;1751693;82;20987;-55
2022/05/14 00:46:48;;;;;;;7.25;3.20;;;;;;;11.30;100.00;99075.52;1736958;81;21070;-56
2022/05/14 00:49:17;;;;;;;9.43;3.12;;;;;;;11.32;100.00;99078.78;1741781;81;20991;-55
2022/05/14 00:51:46;;;;;;;7.15;2.60;;;;;;;11.44;100.00;99071.55;1673596;85;21058;-56
2022/05/14 00:54:17;;;;;;;7.17;3.08;;;;;;;11.47;100.00;99066.87;1752923;81;21001;-56
2022/05/14 00:56:47;;;;;;;7.08;3.30;;;;;;;11.44;100.00;99059.28;1739142;81;21030;-55
2022/05/14 00:59:19;;;;;;;6.60;3.27;;;;;;;11.38;100.00;99063.97;1704842;82;20944;-56
2022/05/14 01:01:46;;;;;;;10.35;3.10;;;;;;;11.32;100.00;99057.53;1705644;82;21063;-56
2022/05/14 01:04:14;;;;;;;9.65;2.67;;;;;;;11.33;100.00;99059.97;1753367;82;21058;-56
2022/05/14 01:06:46;;;;;;;5.95;2.72;;;;;;;11.42;100.00;99051.39;1750819;81;21110;-56
2022/05/14 01:09:12;;;;;;;7.03;2.77;;;;;;;11.43;100.00;99047.56;1737399;81;21051;-56
2022/05/14 01:11:40;;;;;;;5.62;2.70;;;;;;;11.36;100.00;99043.03;1745279;81;21559;-56
2022/05/14 01:14:08;;;;;;;5.25;2.67;;;;;;;11.28;100.00;99047.77;1752743;81;21050;-57
2022/05/14 01:16:35;;;;;;;6.05;2.67;;;;;;;11.23;100.00;99043.73;1707524;82;21466;-56
2022/05/14 01:19:03;;;;;;;10.85;2.80;;;;;;;11.25;100.00;99045.63;1740712;80;21514;-57
2022/05/14 01:21:51;;;;;;;6.22;2.67;;;;;;;11.30;100.00;99044.76;1714476;82;21043;-56
2022/05/14 01:27:25;;;;;;;6.20;3.02;;;;;;;11.31;100.00;99045.81;1702699;82;21058;-55
2022/05/14 01:29:52;;;;;;;;;;;;;;;11.28;100.00;99041.50;1752908;81;21007;-55
2022/05/14 01:32:18;;;;;;;5.60;3.08;;;;;;;11.27;100.00;99041.23;1718262;81;20129;-56
2022/05/14 01:34:45;;;;;;;5.12;2.87;;;;;;;11.19;100.00;99041.36;1720278;81;21088;-57
2022/05/14 01:37:13;;;;;;;5.70;3.00;;;;;;;11.23;100.00;99045.09;1745327;81;21527;-56
2022/05/14 01:39:41;;;;;;;9.43;2.80;;;;;;;11.32;100.00;99047.98;1742650;81;21458;-57
2022/05/14 01:42:08;;;;;;;7.83;2.62;;;;;;;11.35;100.00;99048.77;1730371;81;21027;-56
2022/05/14 01:44:35;;;;;;;7.03;2.62;;;;;;;11.25;100.00;99049.72;1734589;81;21011;-56
2022/05/14 01:47:01;;;;;;;4.55;2.62;;;;;;;11.09;100.00;99034.66;1731733;81;21534;-56
2022/05/14 01:49:29;;;;;;;6.85;2.55;;;;;;;11.11;100.00;99047.99;1732479;81;20991;-56
2022/05/14 01:51:56;;;;;;;6.95;3.08;;;;;;;11.18;100.00;99048.45;1695545;83;21562;-56
2022/05/14 01:54:22;;;;;;;7.20;3.25;;;;;;;11.21;100.00;99051.40;1726229;81;20968;-57
2022/05/14 01:56:49;;;;;;;8.18;2.85;;;;;;;11.19;100.00;99044.62;1687547;83;21110;-56
2022/05/14 01:59:15;;;;;;;5.40;2.98;;;;;;;11.14;100.00;99041.41;1719342;81;20968;-56
2022/05/14 02:01:42;;;;;;;7.28;2.92;;;;;;;11.14;100.00;99044.69;1739327;81;21071;-56
2022/05/14 02:04:12;;;;;;;5.37;2.65;;;;;;;11.20;100.00;99042.14;1671264;85;20979;-56
2022/05/14 02:06:39;;;;;;;6.80;2.95;;;;;;;11.27;100.00;99036.59;1739741;80;21091;-55
2022/05/14 02:09:12;;;;;;;4.60;2.90;;;;;;;11.28;100.00;99032.78;1715755;82;20975;-55
2022/05/14 02:11:37;;;;;;;8.83;3.12;;;;;;;11.26;100.00;99028.19;1737280;81;21040;-56
2022/05/14 02:14:06;;;;;;;8.95;3.08;;;;;;;11.22;100.00;99029.05;1736733;81;21007;-57
2022/05/14 02:16:33;;;;;;;7.25;3.17;;;;;;;11.21;100.00;99027.42;1719420;81;22125;-57
2022/05/14 02:18:59;;;;;;;9.80;3.22;;;;;;;11.25;100.00;99031.19;1736848;81;20994;-57
2022/05/14 02:21:28;;;;;;;6.83;2.90;;;;;;;11.33;100.00;99024.55;1703215;83;21495;-57
2022/05/14 02:23:55;;;;;;;7.37;3.35;;;;;;;11.37;100.00;99020.11;1725397;81;21008;-57
2022/05/14 02:26:22;;;;;;;6.45;2.70;;;;;;;11.35;100.00;99028.33;1735687;81;21605;-57
2022/05/14 02:28:49;;;;;;;5.65;3.27;;;;;;;11.35;100.00;99027.78;1734188;81;20987;-57
2022/05/14 02:31:16;;;;;;;6.72;3.00;;;;;;;11.35;100.00;99018.79;1697676;83;21085;-57
2022/05/14 02:33:43;;;;;;;;;;;;;;;11.41;100.00;99019.78;1727317;81;21035;-58
2022/05/14 02:36:10;;;;;;;4.20;2.65;;;;;;;11.51;100.00;99013.39;1745461;82;20122;-56
2022/05/14 02:38:38;;;;;;;7.90;2.90;;;;;;;11.57;100.00;99013.56;1732778;81;21067;-57
2022/05/14 02:41:05;;;;;;;9.45;3.25;;;;;;;11.60;100.00;99014.88;1724974;82;21192;-57
2022/05/14 02:43:33;;;;;;;10.95;3.65;;;;;;;11.58;100.00;99011.66;1739574;81;20999;-57
2022/05/14 02:46:01;;;;;;;7.70;3.37;;;;;;;11.58;100.00;99008.93;1706520;83;21051;-57
2022/05/14 02:48:28;;;;;;;9.28;2.98;;;;;;;11.60;100.00;99001.25;1743223;81;21483;-57
2022/05/14 02:50:57;;;;;;;;;;;;;;;11.68;100.00;98998.68;1707101;83;21483;-57
2022/05/14 02:53:24;;;;;;;5.97;2.80;;;;;;;11.82;100.00;98999.58;1681411;83;20399;-57
2022/05/14 02:55:51;;;;;;;7.97;3.02;;;;;;;11.91;100.00;98999.69;1734274;82;21040;-57
2022/05/14 03:01:05;;;;;;;6.50;3.00;;;;;;;12.00;100.00;99010.74;1678295;84;21020;-57
2022/05/14 03:03:31;;;;;;;7.28;3.33;;;;;;;12.01;100.00;99012.38;1737137;81;21003;-57
2022/05/14 03:05:59;;;;;;;7.92;3.20;;;;;;;12.03;100.00;99010.14;1741835;81;21059;-57
2022/05/14 03:08:25;;;;;;;8.95;2.75;;;;;;;12.10;100.00;98999.10;1703720;83;20997;-57
2022/05/14 03:10:52;;;;;;;5.87;2.70;;;;;;;12.19;100.00;99002.75;1741013;81;21322;-56
2022/05/14 03:13:19;;;;;;;8.33;3.20;;;;;;;12.27;100.00;98999.34;1740735;81;21102;-57
2022/05/14 03:15:46;;;;;;;5.75;3.40;;;;;;;12.29;100.00;99003.92;1692963;83;21578;-57
2022/05/14 03:18:14;;;;;;;6.17;3.15;;;;;;;12.30;100.00;98996.00;1743879;81;21000;-57
2022/05/14 03:20:40;;;;;;;7.37;2.98;;;;;;;12.31;100.00;98999.55;1724191;82;21046;-57
2022/05/14 03:23:08;;;;;;;7.67;3.00;;;;;;;12.35;100.00;99004.11;1732420;81;21020;-56
2022/05/14 03:25:35;;;;;;;9.48;2.85;;;;;;;12.44;100.00;98996.83;1740917;81;21129;-57
2022/05/14 03:28:01;;;;;;;7.97;3.00;;;;;;;12.47;100.00;98996.22;1723315;82;21062;-57
2022/05/14 03:30:28;;;;;;;;;;;;;;;12.48;100.00;98998.41;1708278;82;21055;-57
2022/05/14 03:32:54;;;;;;;10.03;3.67;;;;;;;12.50;100.00;99004.94;1723009;82;20158;-57
2022/05/14 03:35:21;;;;;;;8.78;3.12;;;;;;;12.43;100.00;99004.76;1698826;84;21751;-57
2022/05/14 03:37:48;;;;;;;12.05;3.20;;;;;;;12.53;100.00;99010.61;1738714;82;21202;-57
2022/05/14 03:40:14;;;;;;;10.70;3.40;;;;;;;12.72;100.00;99005.84;1701824;82;21527;-58
2022/05/14 03:42:42;;;;;;;7.83;3.35;;;;;;;12.86;100.00;99003.92;1734248;82;21405;-56
2022/05/14 03:45:09;;;;;;;9.08;3.50;;;;;;;12.93;100.00;99000.81;1734969;82;21466;-57
2022/05/14 03:47:36;;;;;;;7.72;3.85;;;;;;;12.99;100.00;99000.95;1727507;82;21019;-58
2022/05/14 03:50:02;;;;;;;;;;;;;;;13.06;100.00;99004.08;1718350;82;21007;-57
2022/05/14 03:52:30;;;;;;;6.73;3.67;;;;;;;13.14;100.00;98996.56;1735673;82;20161;-57
2022/05/14 03:54:56;;;;;;;11.10;3.85;;;;;;;13.17;100.00;98994.58;1727880;82;21051;-57
2022/05/14 03:57:23;;;;;;;;;;;;;;;13.32;100.00;98996.18;1718556;82;21137;-57
2022/05/14 03:59:50;;;;;;;7.03;3.60;;;;;;;13.50;100.00;98991.67;1728721;82;20436;-57
2022/05/14 04:02:17;;;;;;;6.70;3.10;;;;;;;13.58;100.00;98984.08;1732154;82;21081;-57
2022/05/14 04:04:44;;;;;;;8.18;3.80;;;;;;;13.64;100.00;98983.64;1725686;82;20963;-58
2022/05/14 04:07:11;;;;;;;5.50;3.70;;;;;;;13.68;100.00;98986.02;1742368;82;21047;-57
2022/05/14 04:09:38;;;;;;;6.97;3.77;;;;;;;13.71;100.00;98993.59;1698110;82;21131;-56
2022/05/14 04:12:06;;;;;;;6.78;4.00;;;;;;;13.74;100.00;98983.43;1741708;82;21445;-58
2022/05/14 04:14:33;;;;;;;7.90;3.87;;;;;;;13.72;100.00;98984.28;1707284;82;21007;-57
2022/05/14 04:17:00;;;;;;;7.53;3.35;;;;;;;13.75;100.00;98988.31;1731548;82;21037;-57
2022/05/14 04:19:28;;;;;;;10.18;3.70;;;;;;;13.82;100.00;98985.40;1739779;82;20932;-58
2022/05/14 04:21:54;;;;;;;7.28;3.50;;;;;;;13.94;100.00;98991.12;1737071;82;21027;-57
2022/05/14 04:24:21;;;;;;;8.13;3.25;;;;;;;14.08;100.00;98985.58;1737075;82;21342;-58
2022/05/14 04:26:48;;;;;;;6.95;3.60;;;;;;;14.19;100.00;98988.86;1744507;82;21134;-59
2022/05/14 04:29:15;;;;;;;10.55;3.70;;;;;;;14.25;100.00;98988.97;1730011;82;21039;-57
2022/05/14 04:31:41;;;;;;;5.35;3.77;;;;;;;14.31;100.00;98992.63;1730232;81;21496;-58
2022/05/14 04:34:08;;;;;;;6.50;3.45;;;;;;;14.34;100.00;99000.83;1744667;81;21109;-58
2022/05/14 04:36:35;;;;;;;8.60;3.80;;;;;;;14.36;100.00;99010.89;1743109;81;21083;-58
2022/05/14 04:39:02;;;;;;;7.22;3.30;;;;;;;14.36;100.00;99000.75;1718804;81;21530;-58
2022/05/14 04:41:30;;;;;;;5.80;3.52;;;;;;;14.38;100.00;99002.59;1753205;81;21812;-58
2022/05/14 04:44:00;;;;;;;10.25;3.52;;;;;;;14.44;100.00;99012.88;1753579;81;21070;-58
2022/05/14 04:46:26;;;;;;;6.37;3.35;;;;;;;14.47;100.00;99022.38;1712395;82;21087;-57
2022/05/14 04:48:53;;;;;;;8.10;3.98;;;;;;;14.49;100.00;99014.09;1748012;81;21098;-58
2022/05/14 04:51:21;;;;;;;11.28;3.50;;;;;;;14.54;100.00;99018.08;1752587;81;21031;-57
2022/05/14 04:53:48;;;;;;;7.30;3.33;;;;;;;14.60;100.00;99025.58;1740801;81;21059;-57
2022/05/14 04:56:14;;;;;;;8.15;3.50;;;;;;;14.74;100.00;99013.96;1712427;82;21051;-57
2022/05/14 04:58:41;;;;;;;7.05;3.35;;;;;;;14.87;100.00;98991.14;1715424;82;21059;-58
2022/05/14 05:01:08;;;;;;;6.50;3.15;;;;;;;14.99;100.00;99009.14;1751427;81;21518;-57
2022/05/14 05:03:35;;;;;;;7.28;3.30;;;;;;;15.13;100.00;99004.34;1714434;81;20987;-58
2022/05/14 05:06:03;;;;;;;9.38;3.50;;;;;;;15.26;100.00;99004.79;1736805;81;21035;-58
2022/05/14 05:08:31;;;;;;;7.50;3.17;;;;;;;15.34;100.00;99010.83;1725464;82;21083;-58
2022/05/14 05:10:58;;;;;;;7.87;3.02;;;;;;;15.42;100.00;99002.37;1753462;81;21730;-57
2022/05/14 05:13:28;;;;;;;6.70;3.12;;;;;;;15.55;100.00;99006.14;1743428;81;21003;-58
2022/05/14 05:15:55;;;;;;;12.68;3.30;;;;;;;15.70;100.00;99002.91;1753918;81;21464;-58
2022/05/14 05:18:21;;;;;;;;;;;;;;;15.80;100.00;99000.64;1753829;81;21432;-58
2022/05/14 05:20:52;;;;;;;5.67;2.90;;;;;;;15.84;100.00;99002.17;1724086;81;20114;-57
2022/05/14 05:23:18;;;;;;;8.35;3.33;;;;;;;15.82;100.00;99009.38;1749002;81;21355;-58
2022/05/14 05:25:45;;;;;;;6.45;3.22;;;;;;;15.80;100.00;99002.02;1739574;81;21102;-57
2022/05/14 05:28:11;;;;;;;6.28;3.50;;;;;;;15.77;100.00;98998.55;1735788;81;21011;-57
2022/05/14 05:30:38;;;;;;;7.03;3.55;;;;;;;15.73;100.00;98998.17;1733160;81;21072;-57
2022/05/14 05:33:10;;;;;;;9.90;3.40;;;;;;;15.71;100.00;98998.48;1734726;82;21030;-58
2022/05/14 05:35:38;;;;;;;11.97;3.47;;;;;;;15.79;100.00;99000.98;1722448;82;21445;-58
2022/05/14 05:38:05;;;;;;;8.18;3.42;;;;;;;15.85;100.00;98999.68;1735613;82;21082;-57
2022/05/14 05:40:31;;;;;;;6.03;3.20;;;;;;;15.84;100.00;99005.73;1750037;82;21039;-57
2022/05/14 05:45:30;;;;;;;8.70;3.90;;;;;;;15.75;100.00;99010.98;1791235;78;22853;-55
2022/05/14 05:47:58;;;;;;;6.37;3.70;;;;;;;15.58;100.00;99009.61;1732819;80;21632;-54
2022/05/14 05:50:26;;;;;;;8.65;3.45;;;;;;;15.57;100.00;99004.69;1742321;80;21055;-56
2022/05/14 05:52:54;;;;;;;10.23;3.25;;;;;;;15.57;100.00;98997.02;1774983;80;20991;-59
2022/05/14 05:58:06;;;;;;;7.22;3.52;;;;;;;15.62;100.00;98996.31;1762222;80;21011;-56
2022/05/14 06:00:33;;;;;;;11.65;3.95;;;;;;;15.62;100.00;99002.36;1711146;82;21384;-56
2022/05/14 06:02:59;;;;;;;11.55;4.00;;;;;;;15.63;100.00;98997.91;1712846;83;21329;-56
2022/05/14 06:05:26;;;;;;;9.20;4.00;;;;;;;15.73;100.00;99001.69;1704939;83;21550;-57
2022/05/14 06:07:53;;;;;;;8.18;3.58;;;;;;;15.83;100.00;98993.16;1708994;83;21384;-56
2022/05/14 06:10:22;;;;;;;13.45;3.80;;;;;;;15.97;100.00;98992.17;1721458;83;21913;-56
2022/05/14 06:12:48;;;;;;;7.65;4.35;;;;;;;16.21;100.00;98993.25;1711421;83;20955;-58
2022/05/14 06:15:18;;;;;;;9.78;4.30;;;;;;;16.43;100.00;98990.30;1694704;84;21048;-56
2022/05/14 06:17:45;;;;;;;11.70;4.30;;;;;;;16.56;100.00;98991.80;1709424;83;21470;-57
2022/05/14 06:20:14;;;;;;;9.28;3.90;;;;;;;16.61;100.00;98986.95;1703755;82;21075;-56
2022/05/14 06:22:41;;;;;;;7.55;4.10;;;;;;;16.65;100.00;98989.25;1712849;83;20988;-58
2022/05/14 06:25:10;;;;;;;10.23;4.47;;;;;;;16.74;100.00;98998.84;1720312;83;21467;-59
2022/05/14 06:27:37;;;;;;;9.33;4.40;;;;;;;16.86;100.00;98999.75;1711060;83;21690;-58
2022/05/14 06:30:06;;;;;;;8.83;3.70;;;;;;;16.95;100.00;99001.09;1722486;82;21024;-57
2022/05/14 06:32:32;;;;;;;10.32;4.30;;;;;;;17.02;100.00;99008.81;1715314;83;21062;-58
2022/05/14 06:34:59;;;;;;;8.80;4.42;;;;;;;17.11;100.00;99002.13;1714246;83;21042;-56
2022/05/14 06:37:26;;;;;;;10.50;4.58;;;;;;;17.23;100.00;99009.11;1705023;83;21639;-58
2022/05/14 06:39:52;;;;;;;9.93;4.92;;;;;;;17.30;100.00;99008.01;1710025;82;21083;-56
2022/05/14 06:42:19;;;;;;;11.80;5.30;;;;;;;17.38;100.00;99004.97;1724488;83;21035;-58
2022/05/14 06:44:45;;;;;;;13.05;5.72;;;;;;;17.41;100.00;99011.17;1703521;82;21557;-58
2022/05/14 06:47:11;;;;;;;11.43;6.15;;;;;;;17.39;100.00;99017.00;1693783;84;21134;-59
2022/05/14 06:49:38;;;;;;;13.50;6.60;;;;;;;17.49;100.00;99028.20;1720132;82;21021;-58
2022/05/14 06:52:06;;;;;;;13.58;5.90;;;;;;;17.40;100.00;99018.62;1702953;83;21056;-59
2022/05/14 06:54:32;;;;;;;11.93;6.25;;;;;;;17.51;100.00;99031.41;1690844;83;21090;-59
2022/05/14 06:57:00;;;;;;;13.55;7.03;;;;;;;17.62;100.00;99036.80;1659581;85;21075;-59
2022/05/14 06:59:27;;;;;;;15.13;6.87;;;;;;;17.66;100.00;99037.74;1703906;83;21538;-59
2022/05/14 07:01:53;;;;;;;11.97;6.90;;;;;;;17.60;100.00;99035.53;1685908;84;21200;-57
2022/05/14 07:07:05;;;;;;;13.08;7.85;;;;;;;17.54;100.00;99021.11;1742786;81;21087;-58
2022/05/14 07:09:34;;;;;;;20.95;9.10;;;;;;;17.70;100.00;99040.06;1753203;80;21599;-58
2022/05/14 07:12:08;;;;;;;13.53;7.95;;;;;;;17.68;100.00;99039.58;1744110;81;21601;-58
2022/05/14 07:14:34;;;;;;;16.25;8.20;;;;;;;17.70;100.00;99042.00;1742609;82;21611;-58
2022/05/14 07:17:02;;;;;;;22.05;8.75;;;;;;;17.74;100.00;99049.83;1756609;81;21506;-59
2022/05/14 07:19:28;;;;;;;16.02;7.85;;;;;;;17.76;100.00;99050.29;1751662;80;21074;-60
2022/05/14 07:21:55;;;;;;;19.10;8.20;;;;;;;17.69;100.00;99051.39;1752253;81;20992;-59
2022/05/14 07:24:25;;;;;;;13.78;8.15;;;;;;;17.61;100.00;99059.94;1734922;82;21858;-59
2022/05/14 07:26:54;;;;;;;15.95;8.53;;;;;;;17.54;100.00;99068.45;1770258;80;21003;-59
2022/05/14 07:29:22;;;;;;;19.90;7.95;;;;;;;17.48;100.00;99064.30;1771357;80;21475;-58
2022/05/14 07:31:48;;;;;;;13.88;7.97;;;;;;;17.39;100.00;99067.90;1753333;81;21091;-58
2022/05/14 07:34:15;;;;;;;16.90;8.90;;;;;;;17.29;100.00;99067.47;1703921;83;21116;-59
2022/05/14 07:36:52;;;;;;;19.07;9.08;;;;;;;17.10;100.00;99047.84;1760350;80;21706;-58
2022/05/14 07:39:20;;;;;;;19.20;9.60;;;;;;;16.98;100.00;99058.16;1773027;81;21043;-59
2022/05/14 07:41:53;;;;;;;15.80;8.85;;;;;;;17.02;100.00;99080.30;1772831;81;21059;-59
2022/05/14 07:44:21;;;;;;;18.77;9.28;;;;;;;16.96;100.00;99076.95;1699163;83;21732;-59
2022/05/14 07:46:49;;;;;;;21.17;10.08;;;;;;;16.95;100.00;99080.02;1757694;80;21052;-59
2022/05/14 07:49:17;;;;;;;17.90;10.08;;;;;;;16.89;100.00;99089.02;1704604;84;21119;-59
2022/05/14 07:51:44;;;;;;;22.07;10.15;;;;;;;16.77;100.00;99091.63;1704177;84;21180;-59
2022/05/14 07:54:10;;;;;;;;;;;;;;;16.68;100.00;99088.11;1689903;83;21554;-59
2022/05/14 07:56:38;;;;;;;22.23;11.57;;;;;;;16.63;100.00;99093.77;1696849;83;20142;-59
2022/05/14 07:59:04;;;;;;;19.50;10.93;;;;;;;16.53;100.00;99097.64;1715804;83;21114;-59
2022/05/14 08:01:31;;;;;;;19.15;11.75;;;;;;;16.52;100.00;99107.02;1713682;83;21147;-60
2022/05/14 08:03:58;;;;;;;20.57;11.15;;;;;;;16.54;100.00;99108.08;1715537;83;21051;-59
2022/05/14 08:06:24;;;;;;;18.80;11.05;;;;;;;16.54;100.00;99102.58;1754721;80;21059;-59
2022/05/14 08:08:51;;;;;;;24.05;11.97;;;;;;;16.52;100.00;99104.27;1742404;82;21062;-59
2022/05/14 08:11:19;;;;;;;21.80;12.23;;;;;;;16.54;100.00;99095.15;1743941;81;21094;-59
2022/05/14 08:13:46;;;;;;;20.72;11.33;;;;;;;16.52;100.00;99089.72;1749528;80;21083;-59
2022/05/14 08:16:12;;;;;;;24.90;12.45;;;;;;;16.52;100.00;99097.96;1742970;81;21566;-59
2022/05/14 08:18:39;;;;;;;27.00;13.03;;;;;;;16.54;100.00;99100.64;1742203;82;21059;-59
2022/05/14 08:26:36;;;;;;;22.13;11.15;;;;;;;16.69;100.00;99104.82;1752967;81;21054;-59
2022/05/14 08:29:03;;;;;;;21.37;10.45;;;;;;;16.66;100.00;99102.73;1758564;81;21026;-59
2022/05/14 08:31:29;;;;;;;21.02;9.65;;;;;;;16.66;100.00;99097.23;1742657;81;21087;-59
2022/05/14 08:33:55;;;;;;;;;;;;;;;16.65;100.00;99098.39;1742358;81;20956;-58
2022/05/14 08:36:22;;;;;;;18.90;8.75;;;;;;;16.62;100.00;99100.39;1766784;80;20152;-59
2022/05/14 08:38:50;;;;;;;18.50;8.63;;;;;;;16.54;100.00;99112.20;1702646;84;21044;-60
2022/05/14 08:41:18;;;;;;;14.25;8.48;;;;;;;16.55;100.00;99109.67;1749692;79;21475;-59
2022/05/14 08:43:50;;;;;;;17.32;8.00;;;;;;;16.59;100.00;99109.30;1747747;80;21008;-59
2022/05/14 08:46:20;;;;;;;19.85;9.20;;;;;;;16.67;100.00;99115.34;1746810;80;21053;-59
2022/05/14 08:48:50;;;;;;;18.35;8.20;;;;;;;16.71;100.00;99116.31;1742074;82;21068;-59
2022/05/14 08:51:20;;;;;;;17.05;8.30;;;;;;;16.73;100.00;99112.66;1742270;82;21524;-59
2022/05/14 08:53:48;;;;;;;13.08;7.08;;;;;;;16.78;100.00;99111.94;1747435;80;20995;-59
2022/05/14 08:56:29;;;;;;;17.02;8.38;;;;;;;16.81;100.00;99111.27;1766089;80;21016;-59
2022/05/14 08:59:09;;;;;;;14.10;7.17;;;;;;;16.89;100.00;99108.27;1781035;80;21026;-59
2022/05/14 09:01:39;;;;;;;13.40;7.65;;;;;;;17.04;100.00;99113.80;1781037;80;21054;-59
2022/05/14 09:04:06;;;;;;;13.83;6.20;;;;;;;17.14;100.00;99107.93;1773608;80;20984;-58
2022/05/14 09:06:33;;;;;;;11.73;5.47;;;;;;;17.22;100.00;99105.12;1761179;80;21119;-60
2022/05/14 09:08:59;;;;;;;;;;;;;;;17.29;100.00;99094.98;1756957;81;21345;-59
2022/05/14 09:11:41;;;;;;;11.45;4.70;;;;;;;17.35;100.00;99103.30;1754721;81;20112;-59
2022/05/14 09:14:22;;;;;;;12.07;5.20;;;;;;;17.30;100.00;99102.10;1769609;80;21059;-59
2022/05/14 09:16:51;;;;;;;15.05;6.00;;;;;;;17.40;100.00;99098.41;1755351;80;21059;-59
2022/05/14 09:19:20;;;;;;;10.15;5.30;;;;;;;17.53;100.00;99101.27;1762386;81;21000;-59
2022/05/14 09:21:56;;;;;;;11.25;3.90;;;;;;;17.61;100.00;99107.30;1772968;81;21004;-58
2022/05/14 09:24:26;;;;;;;8.53;3.30;;;;;;;17.71;100.00;99104.18;1757219;81;21506;-58
2022/05/14 09:26:55;;;;;;;8.55;2.90;;;;;;;17.73;100.00;99097.20;1765523;80;21039;-59
2022/05/14 09:29:29;;;;;;;5.40;2.75;;;;;;;17.73;100.00;99098.57;1769435;81;21018;-58
2022/05/14 09:32:22;;;;;;;6.17;2.30;;;;;;;17.86;100.00;99098.88;1750989;80;21514;-59
2022/05/14 09:34:48;;;;;;;5.87;2.40;;;;;;;17.98;100.00;99099.53;1757371;81;21510;-58
2022/05/14 09:37:20;;;;;;;6.92;2.50;;;;;;;18.05;100.00;99097.04;1765598;80;21179;-59
2022/05/14 09:40:00;;;;;;;4.17;1.75;;;;;;;18.08;100.00;99097.74;1772213;81;21063;-58
2022/05/14 09:42:44;;;;;;;5.15;2.20;;;;;;;18.12;100.00;99090.42;1761270;80;20976;-58
2022/05/14 09:45:33;;;;;;;4.78;1.90;;;;;;;18.23;100.00;99088.88;1728363;81;21059;-58
2022/05/14 09:48:21;;;;;;;5.85;2.10;;;;;;;18.36;100.00;99089.72;1739672;81;21796;-58
2022/05/14 09:50:57;;;;;;;6.50;2.25;;;;;;;18.50;100.00;99088.84;1747046;81;21076;-57
2022/05/14 09:53:35;;;;;;;6.12;2.30;;;;;;;18.59;100.00;99080.53;1758388;81;20964;-56
2022/05/14 09:56:32;;;;;;;4.90;1.90;;;;;;;18.57;100.00;99081.43;1759872;81;21079;-57
2022/05/14 09:59:32;;;;;;;3.35;1.40;;;;;;;18.59;100.00;99076.41;1721544;82;21059;-54
2022/05/14 10:02:02;;;;;;;5.00;1.85;;;;;;;18.52;100.00;99075.59;1759771;81;21554;-57
2022/05/14 10:04:46;;;;;;;5.58;1.90;;;;;;;18.55;100.00;99078.22;1746813;80;21416;-57
2022/05/14 10:07:37;;;;;;;5.03;2.33;;;;;;;18.62;100.00;99084.80;1674965;84;21150;-58
2022/05/14 10:10:32;;;;;;;4.78;1.82;;;;;;;18.72;100.00;99074.71;1696598;81;21122;-57
2022/05/14 10:13:20;;;;;;;4.85;2.17;;;;;;;18.92;100.00;99080.50;1760224;81;21023;-57
2022/05/14 10:16:09;;;;;;;4.95;1.60;;;;;;;19.20;100.00;99073.95;1726640;81;21107;-57
2022/05/14 10:18:53;;;;;;;6.95;1.65;;;;;;;19.49;100.00;99069.38;1746565;80;21047;-57
2022/05/14 10:21:47;;;;;;;6.12;1.98;;;;;;;19.77;100.00;99075.21;1745478;81;21063;-55
2022/05/14 10:27:37;;;;;;;4.95;1.42;;;;;;;19.73;98.38;99074.89;1744158;81;21079;-56
2022/05/14 10:30:17;;;;;;;3.95;1.65;;;;;;;19.68;95.63;99080.64;1749403;81;21510;-56
2022/05/14 10:32:45;;;;;;;3.90;1.30;;;;;;;19.65;93.16;99085.48;1745482;80;21377;-56
2022/05/14 10:35:37;;;;;;;4.55;2.08;;;;;;;19.55;89.30;99079.05;1764580;81;21512;-56
2022/05/14 10:38:20;;;;;;;8.05;2.30;;;;;;;19.43;87.08;99073.53;1716728;81;20964;-56
2022/05/14 10:40:49;;;;;;;8.80;3.50;;;;;;;19.37;94.43;99072.94;1753114;81;21106;-55
2022/05/14 10:43:31;;;;;;;8.30;2.77;;;;;;;19.35;100.00;99074.66;1746790;81;21559;-56
2022/05/14 10:45:58;;;;;;;9.75;3.45;;;;;;;19.49;100.00;99065.23;1764293;81;21044;-56
2022/05/14 10:49:10;;;;;;;9.00;4.30;;;;;;;19.59;93.34;99066.17;1751532;80;21043;-57
2022/05/14 10:51:46;;;;;;;8.95;2.80;;;;;;;19.59;96.30;99075.23;1743693;80;21094;-57
2022/05/14 10:54:16;;;;;;;5.30;3.08;;;;;;;19.49;85.84;99072.95;1766861;80;21510;-56
2022/05/14 10:56:59;;;;;;;7.65;3.87;;;;;;;19.32;90.40;99072.59;1685309;83;21130;-57
2022/05/14 10:59:46;;;;;;;12.55;4.85;;;;;;;19.29;93.33;99073.28;1725302;81;21317;-58
2022/05/14 11:02:24;;;;;;;8.65;4.55;;;;;;;19.25;91.88;99062.70;1760810;81;21469;-58
2022/05/14 11:04:51;;;;;;;9.53;4.33;;;;;;;19.26;95.64;99065.70;1692773;83;21004;-56
2022/05/14 11:07:37;;;;;;;9.45;5.00;;;;;;;19.35;100.00;99057.28;1758408;80;21071;-57
2022/05/14 11:10:22;;;;;;;9.17;4.20;;;;;;;19.52;94.40;99058.45;1760816;80;21015;-56
2022/05/14 11:12:51;;;;;;;8.53;4.35;;;;;;;19.50;93.30;99062.72;1757527;81;21827;-57
2022/05/14 11:15:29;;;;;;;8.50;3.75;;;;;;;19.44;92.38;99064.92;1766619;80;21459;-57
2022/05/14 11:18:11;;;;;;;7.30;3.87;;;;;;;19.38;95.11;99058.78;1755110;81;21003;-57
2022/05/14 11:20:56;;;;;;;7.40;3.90;;;;;;;19.30;95.37;99058.34;1748652;80;21023;-57
2022/05/14 11:23:23;;;;;;;8.75;3.52;;;;;;;19.31;95.33;99061.31;1682688;83;21953;-57
2022/05/14 11:26:12;;;;;;;7.15;3.90;;;;;;;19.41;94.28;99064.23;1739230;81;21067;-57
2022/05/14 11:28:38;;;;;;;9.58;4.10;;;;;;;19.42;89.75;99073.30;1758473;81;21019;-57
2022/05/14 11:31:16;;;;;;;11.75;3.60;;;;;;;19.32;92.79;99066.27;1745101;80;21075;-57
2022/05/14 11:33:43;;;;;;;6.40;2.20;;;;;;;19.21;94.28;99072.00;1675657;83;21047;-58
2022/05/14 11:36:18;;;;;;;3.25;1.45;;;;;;;19.06;98.59;99081.77;1711398;83;21047;-57
2022/05/14 11:38:49;;;;;;;4.72;1.77;;;;;;;19.00;100.00;99085.09;1710228;83;21354;-57
2022/05/14 11:41:30;;;;;;;5.00;1.80;;;;;;;18.85;100.00;99084.61;1678794;84;21592;-56
2022/05/14 11:44:04;;;;;;;4.37;1.40;;;;;;;18.69;100.00;99098.83;1693013;84;20996;-56
2022/05/14 11:46:49;;;;;;;7.78;1.72;;;;;;;18.50;100.00;99099.88;1669364;84;21663;-57
2022/05/14 11:49:31;;;;;;;;;;;;;;;18.35;100.00;99097.77;1712364;83;21048;-57
2022/05/14 11:52:18;;;;;;;5.55;1.98;;;;;;;18.24;100.00;99088.30;1696727;83;20120;-58
2022/05/14 11:55:03;;;;;;;5.12;1.57;;;;;;;18.18;100.00;99086.31;1704231;82;20996;-56
2022/05/14 11:57:53;;;;;;;3.92;1.37;;;;;;;18.26;100.00;99079.12;1698336;82;21439;-57
2022/05/14 12:00:28;;;;;;;4.42;1.42;;;;;;;18.35;100.00;99082.62;1690689;83;21150;-57
2022/05/14 12:03:06;;;;;;;4.85;1.42;;;;;;;18.50;100.00;99085.28;1705691;83;20960;-58
2022/05/14 12:05:40;;;;;;;4.20;1.10;;;;;;;18.66;100.00;99083.55;1759867;81;21141;-58
2022/05/14 12:08:21;;;;;;;8.25;3.50;;;;;;;18.85;100.00;99074.95;1755198;80;21007;-57